createdAt,value
2022-09-13T00:02:52.069Z,5.53
2022-09-13T00:07:54.523Z,5.47
2022-09-13T00:12:55.935Z,3.03
2022-09-13T00:17:57.182Z,3.90
2022-09-13T00:22:58.265Z,5.47
2022-09-13T00:27:59.358Z,6.18
2022-09-13T00:33:03.767Z,4.70
2022-09-13T00:38:05.327Z,3.95
2022-09-13T00:43:16.365Z,4.25
2022-09-13T00:48:21.905Z,2.53
2022-09-13T00:53:29.742Z,6.82
2022-09-13T00:58:36.177Z,2.58
2022-09-13T01:03:38.578Z,4.80
2022-09-13T01:08:42.718Z,3.95
2022-09-13T01:13:44.969Z,2.78
2022-09-13T01:18:46.089Z,3.55
2022-09-13T01:24:21.378Z,3.63
2022-09-13T01:29:53.615Z,3.63
2022-09-13T01:35:03.791Z,4.07
2022-09-13T01:40:32.033Z,2.47
2022-09-13T01:45:40.150Z,2.58
2022-09-13T01:50:47.002Z,2.70
2022-09-13T01:55:58.774Z,6.63
2022-09-13T02:01:17.430Z,3.20
2022-09-13T02:06:23.202Z,2.72
2022-09-13T02:11:24.558Z,3.55
2022-09-13T02:16:41.193Z,2.75
2022-09-13T02:21:45.481Z,4.57
2022-09-13T02:26:52.082Z,3.08
2022-09-13T02:32:05.266Z,7.53
2022-09-13T02:37:08.112Z,2.28
2022-09-13T02:42:21.045Z,2.70
2022-09-13T02:47:48.863Z,4.07
2022-09-13T02:52:54.303Z,3.15
2022-09-13T02:58:23.613Z,3.13
2022-09-13T03:03:28.181Z,4.60
2022-09-13T03:08:29.912Z,3.08
2022-09-13T03:13:56.539Z,3.20
2022-09-13T03:18:57.773Z,6.90
2022-09-13T03:24:12.286Z,5.70
2022-09-13T03:29:39.664Z,6.00
2022-09-13T03:35:05.187Z,4.18
2022-09-13T03:40:13.861Z,3.42
2022-09-13T03:45:18.211Z,4.32
2022-09-13T03:50:22.938Z,2.33
2022-09-13T03:55:25.207Z,5.90
2022-09-13T04:00:26.757Z,3.10
2022-09-13T04:05:27.983Z,5.43
2022-09-13T04:10:30.990Z,5.20
2022-09-13T04:15:32.307Z,3.33
2022-09-13T04:20:35.116Z,3.53
2022-09-13T04:25:38.549Z,2.80
2022-09-13T04:30:47.129Z,5.95
2022-09-13T04:35:53.742Z,3.15
2022-09-13T04:40:55.422Z,5.75
2022-09-13T04:46:00.473Z,5.20
2022-09-13T04:51:03.850Z,3.28
2022-09-13T04:56:05.754Z,2.60
2022-09-13T05:01:09.511Z,3.28
2022-09-13T05:06:18.938Z,5.65
2022-09-13T05:11:22.166Z,3.80
2022-09-13T05:16:25.287Z,7.50
2022-09-13T05:21:30.206Z,5.28
2022-09-13T05:26:31.566Z,4.82
2022-09-13T05:31:35.926Z,4.80
2022-09-13T05:36:37.473Z,6.78
2022-09-13T05:41:38.513Z,4.38
2022-09-13T05:46:40.193Z,6.88
2022-09-13T05:51:41.696Z,5.30
2022-09-13T05:56:42.786Z,5.85
2022-09-13T06:01:44.508Z,5.47
2022-09-13T06:06:45.629Z,4.43
2022-09-13T06:11:46.678Z,5.63
2022-09-13T06:16:47.870Z,5.63
2022-09-13T06:21:48.967Z,4.30
2022-09-13T06:26:50.006Z,4.57
2022-09-13T06:31:51.128Z,7.22
2022-09-13T06:36:52.217Z,8.30
2022-09-13T06:41:53.445Z,7.25
2022-09-13T06:47:01.874Z,7.07
2022-09-13T06:52:03.080Z,7.07
2022-09-13T06:57:04.349Z,6.65
2022-09-13T07:02:05.627Z,8.68
2022-09-13T07:07:06.870Z,7.55
2022-09-13T07:12:07.951Z,9.00
2022-09-13T07:17:09.069Z,8.80
2022-09-13T07:22:10.207Z,6.93
2022-09-13T07:27:12.150Z,9.18
2022-09-13T07:32:13.766Z,9.85
2022-09-13T07:37:14.974Z,12.38
2022-09-13T07:42:16.091Z,9.30
2022-09-13T07:47:17.646Z,11.18
2022-09-13T07:52:18.765Z,12.48
2022-09-13T07:57:19.861Z,9.50
2022-09-13T08:02:20.967Z,11.85
2022-09-13T08:07:22.378Z,9.35
2022-09-13T08:12:23.645Z,9.77
2022-09-13T08:17:24.745Z,7.25
2022-09-13T08:22:25.781Z,8.18
2022-09-13T08:27:28.022Z,9.13
2022-09-13T08:32:29.386Z,14.23
2022-09-13T08:37:33.529Z,10.30
2022-09-13T08:42:58.739Z,10.05
2022-09-13T08:48:11.256Z,6.93
2022-09-13T08:53:25.557Z,10.98
2022-09-13T08:58:55.029Z,15.82
2022-09-13T09:04:29.292Z,11.38
2022-09-13T09:09:40.062Z,9.85
2022-09-13T09:14:45.994Z,12.57
2022-09-13T09:20:00.042Z,11.02
2022-09-13T09:25:01.269Z,9.07
2022-09-13T09:30:03.443Z,7.72
2022-09-13T09:35:36.101Z,6.00
2022-09-13T09:40:37.750Z,8.80
2022-09-13T09:45:41.233Z,8.25
2022-09-13T09:50:48.406Z,6.20
2022-09-13T09:55:59.830Z,13.43
2022-09-13T10:01:01.191Z,7.90
2022-09-13T10:06:09.025Z,8.27
2022-09-13T10:11:10.242Z,7.30
2022-09-13T10:16:29.519Z,9.95
2022-09-13T10:21:30.769Z,9.88
2022-09-13T10:26:33.349Z,13.65
2022-09-13T10:31:38.106Z,10.82
2022-09-13T10:36:55.398Z,12.27
2022-09-13T10:42:02.125Z,9.57
2022-09-13T10:47:12.627Z,11.48
2022-09-13T10:52:34.859Z,7.38
2022-09-13T10:57:37.211Z,7.30
2022-09-13T11:02:44.363Z,7.38
2022-09-13T11:07:48.611Z,10.50
2022-09-13T11:13:00.334Z,11.65
2022-09-13T11:18:26.846Z,5.95
2022-09-13T11:23:40.690Z,7.00
2022-09-13T11:29:01.488Z,7.25
2022-09-13T11:34:35.997Z,4.22
2022-09-13T11:39:51.707Z,8.00
2022-09-13T11:45:08.882Z,9.65
2022-09-13T11:50:13.588Z,6.63
2022-09-13T11:55:31.033Z,5.93
2022-09-13T12:00:46.386Z,8.32
2022-09-13T12:05:53.130Z,4.82
2022-09-13T12:10:57.147Z,4.82
2022-09-13T12:16:08.043Z,5.32
2022-09-13T12:21:18.560Z,4.93
2022-09-13T12:26:35.049Z,5.93
2022-09-13T12:31:36.240Z,6.07
2022-09-13T12:36:57.891Z,4.70
2022-09-13T12:42:20.910Z,8.32
2022-09-13T12:48:05.765Z,4.50
2022-09-13T12:53:46.245Z,4.70
2022-09-13T12:59:03.086Z,6.50
2022-09-13T13:04:28.050Z,6.30
2022-09-13T13:09:33.590Z,7.38
2022-09-13T13:14:37.657Z,5.78
2022-09-13T13:19:39.274Z,7.25
2022-09-13T13:24:46.059Z,6.60
2022-09-13T13:30:25.474Z,6.63
2022-09-13T13:35:31.590Z,6.50
2022-09-13T13:40:32.979Z,7.75
2022-09-13T13:45:34.216Z,8.57
2022-09-13T13:50:55.530Z,9.45
2022-09-13T13:56:20.931Z,10.60
2022-09-13T14:01:27.742Z,8.52
2022-09-13T14:06:53.953Z,7.18
2022-09-13T14:12:04.534Z,5.95
2022-09-13T14:17:43.007Z,8.15
2022-09-13T14:22:44.340Z,5.80
2022-09-13T14:27:47.784Z,9.57
2022-09-13T14:32:52.330Z,6.57
2022-09-13T14:37:55.322Z,5.07
2022-09-13T14:42:56.478Z,6.72
2022-09-13T14:48:22.266Z,7.03
2022-09-13T14:53:30.522Z,7.18
2022-09-13T14:58:48.371Z,7.85
2022-09-13T15:03:50.980Z,8.10
2022-09-13T15:09:00.293Z,9.60
2022-09-13T15:14:26.269Z,9.52
2022-09-13T15:19:31.294Z,12.38
2022-09-13T15:24:33.782Z,8.50
2022-09-13T15:29:36.812Z,10.68
2022-09-13T15:34:46.036Z,12.45
2022-09-13T15:39:50.938Z,10.90
2022-09-13T15:44:52.099Z,20.10
2022-09-13T15:49:53.442Z,12.27
2022-09-13T15:54:54.787Z,14.93
2022-09-13T15:59:58.867Z,11.10
2022-09-13T16:05:11.430Z,13.05
2022-09-13T16:10:19.561Z,11.13
2022-09-13T16:15:20.768Z,14.35
2022-09-13T16:20:22.017Z,14.48
2022-09-13T16:25:23.303Z,13.60
2022-09-13T16:30:27.047Z,12.63
2022-09-13T16:35:32.146Z,12.32
2022-09-13T16:40:33.516Z,11.00
2022-09-13T16:45:38.416Z,11.07
2022-09-13T16:50:40.362Z,12.75
2022-09-13T16:55:42.205Z,10.15
2022-09-13T17:00:43.455Z,12.73
2022-09-13T17:05:56.477Z,15.77
2022-09-13T17:10:57.779Z,18.35
2022-09-13T17:15:58.897Z,13.93
2022-09-13T17:21:00.109Z,15.15
2022-09-13T17:26:01.346Z,13.68
2022-09-13T17:31:02.940Z,15.02
2022-09-13T17:36:07.591Z,14.60
2022-09-13T17:41:11.698Z,12.68
2022-09-13T17:46:21.454Z,14.80
2022-09-13T17:51:24.989Z,14.02
2022-09-13T17:56:45.901Z,14.45
2022-09-13T18:01:52.597Z,16.48
2022-09-13T18:06:54.458Z,16.85
2022-09-13T18:11:56.004Z,13.00
2022-09-13T18:16:57.504Z,17.20
2022-09-13T18:22:00.763Z,15.73
2022-09-13T18:27:02.657Z,15.75
2022-09-13T18:32:03.963Z,18.85
2022-09-13T18:37:05.209Z,16.92
2022-09-13T18:42:06.793Z,15.60
2022-09-13T18:47:12.151Z,15.00
2022-09-13T18:52:13.417Z,12.82
2022-09-13T18:57:14.660Z,13.32
2022-09-13T19:02:16.069Z,13.80
2022-09-13T19:07:17.173Z,17.73
2022-09-13T19:12:18.416Z,12.35
2022-09-13T19:17:19.473Z,14.20
2022-09-13T19:22:20.678Z,14.40
2022-09-13T19:27:21.954Z,13.23
2022-09-13T19:32:23.221Z,12.27
2022-09-13T19:37:24.587Z,15.98
2022-09-13T19:42:25.842Z,14.35
2022-09-13T19:48:12.931Z,17.27
2022-09-13T19:52:49.416Z,16.35
2022-09-13T19:57:50.499Z,19.40
2022-09-13T20:02:51.546Z,15.75
2022-09-13T20:07:52.574Z,16.88
2022-09-13T20:12:54.487Z,17.25
2022-09-13T20:17:56.111Z,16.92
2022-09-13T20:22:57.210Z,18.42
2022-09-13T20:27:58.654Z,18.17
2022-09-13T20:32:59.698Z,16.27
2022-09-13T20:38:00.794Z,16.80
2022-09-13T20:43:02.173Z,21.67
2022-09-13T20:48:03.538Z,19.10
2022-09-13T20:53:04.583Z,19.15
2022-09-13T20:58:05.629Z,24.70
2022-09-13T21:03:07.442Z,25.40
2022-09-13T21:08:36.226Z,26.50
2022-09-13T21:13:41.770Z,31.58
2022-09-13T21:18:43.718Z,23.48
2022-09-13T21:23:45.863Z,25.88
2022-09-13T21:28:47.241Z,17.75
2022-09-13T21:33:55.984Z,14.07
2022-09-13T21:38:57.369Z,14.48
2022-09-13T21:43:59.077Z,15.52
2022-09-13T21:49:02.831Z,16.02
2022-09-13T21:54:06.747Z,11.95
2022-09-13T21:59:13.818Z,13.85
2022-09-13T22:04:26.629Z,11.65
2022-09-13T22:09:27.850Z,15.40
2022-09-13T22:14:28.902Z,10.77
2022-09-13T22:19:30.967Z,14.13
2022-09-13T22:24:34.983Z,12.75
2022-09-13T22:29:36.245Z,11.85
2022-09-13T22:34:37.490Z,14.65
2022-09-13T22:39:38.589Z,12.68
2022-09-13T22:44:39.660Z,12.07
2022-09-13T22:49:40.761Z,15.60
2022-09-13T22:54:42.035Z,15.18
2022-09-13T22:59:43.099Z,13.05
2022-09-13T23:04:44.426Z,13.75
2022-09-13T23:09:45.474Z,13.00
2022-09-13T23:14:46.525Z,14.45
2022-09-13T23:19:47.610Z,12.93
2022-09-13T23:24:48.794Z,12.23
2022-09-13T23:29:49.850Z,18.83
2022-09-13T23:34:51.054Z,15.65
2022-09-13T23:39:52.494Z,15.57
2022-09-13T23:44:53.933Z,11.73
2022-09-13T23:49:55.189Z,16.58
2022-09-13T23:54:56.418Z,11.60
2022-09-13T23:59:57.582Z,13.10
